Time;durP1;ratioP1;P1;durP2;ratioP2;P2;SDS_P1;SDS_P2;PMS_P1;PMS_P2;Temp;Humidity;BMP_temperature;BMP_pressure;BME280_temperature;BME280_humidity;BME280_pressure;Samples;Min_cycle;Max_cycle;Signal;HPM_P1;HPM_P2
2022/05/16 00:02:15;;;;;;;4.03;2.92;;;;;;;;;;5040147;28;20037;-71
2022/05/16 00:04:42;;;;;;;6.05;3.25;;;;;;;;;;5040165;28;20020;-75
2022/05/16 00:07:08;;;;;;;6.68;3.88;;;;;;;;;;5040762;28;20020;-72
2022/05/16 00:09:33;;;;;;;7.63;3.78;;;;;;;;;;5030803;28;20040;-72
2022/05/16 00:11:58;;;;;;;6.50;2.83;;;;;;;;;;5039615;28;20037;-71
2022/05/16 00:14:24;;;;;;;5.75;3.15;;;;;;;;;;5030461;28;20030;-75
2022/05/16 00:16:49;;;;;;;4.93;2.75;;;;;;;;;;5039144;28;20033;-71
2022/05/16 00:19:15;;;;;;;7.72;3.72;;;;;;;;;;5038219;28;20025;-72
2022/05/16 00:21:40;;;;;;;7.20;3.65;;;;;;;;;;5039049;28;20455;-77
2022/05/16 00:24:06;;;;;;;8.48;3.05;;;;;;;;;;5031483;28;20036;-75
2022/05/16 00:26:31;;;;;;;5.97;3.00;;;;;;;;;;5038199;28;20063;-71
2022/05/16 00:28:57;;;;;;;7.63;3.03;;;;;;;;;;5032490;28;20423;-75
2022/05/16 00:31:22;;;;;;;4.43;3.10;;;;;;;;;;5030745;28;20399;-71
2022/05/16 00:33:47;;;;;;;4.25;2.90;;;;;;;;;;5033884;28;20025;-71
2022/05/16 00:36:13;;;;;;;4.57;3.10;;;;;;;;;;5040385;28;20028;-71
2022/05/16 00:38:38;;;;;;;3.70;2.75;;;;;;;;;;5037687;28;20095;-72
2022/05/16 00:41:04;;;;;;;6.03;3.33;;;;;;;;;;5030508;28;20394;-72
2022/05/16 00:43:44;;;;;;;4.10;3.00;;;;;;;;;;5039151;28;20025;-74
2022/05/16 00:46:09;;;;;;;;;;;;;;;;;;5028339;28;20024;-72
2022/05/16 00:48:35;;;;;;;4.80;2.50;;;;;;;;;;5033268;28;19917;-72
2022/05/16 00:51:01;;;;;;;2.95;2.63;;;;;;;;;;5039173;28;20113;-72
2022/05/16 00:53:27;;;;;;;3.85;2.53;;;;;;;;;;5031176;28;20027;-74
2022/05/16 00:55:52;;;;;;;5.38;3.45;;;;;;;;;;5042328;28;20383;-72
2022/05/16 00:58:19;;;;;;;7.32;3.75;;;;;;;;;;5038205;28;20029;-76
2022/05/16 01:00:45;;;;;;;8.50;3.90;;;;;;;;;;5029810;28;20051;-73
2022/05/16 01:06:04;;;;;;;8.52;3.88;;;;;;;;;;5038111;28;20391;-74
2022/05/16 01:08:31;;;;;;;10.75;4.28;;;;;;;;;;5039277;28;20037;-72
2022/05/16 01:10:58;;;;;;;8.38;4.32;;;;;;;;;;5039328;28;20036;-74
2022/05/16 01:13:25;;;;;;;7.43;3.50;;;;;;;;;;5031065;28;20033;-74
2022/05/16 01:15:50;;;;;;;11.73;4.30;;;;;;;;;;5038240;28;20143;-72
2022/05/16 01:18:17;;;;;;;9.20;4.25;;;;;;;;;;5028243;28;20361;-74
2022/05/16 01:21:01;;;;;;;7.10;3.30;;;;;;;;;;5035643;28;20356;-78
2022/05/16 01:23:27;;;;;;;4.35;3.03;;;;;;;;;;5031671;28;20033;-72
2022/05/16 01:25:53;;;;;;;6.22;3.63;;;;;;;;;;5028620;28;20029;-72
2022/05/16 01:28:20;;;;;;;5.72;3.78;;;;;;;;;;5037614;28;20305;-76
2022/05/16 01:30:47;;;;;;;5.60;3.50;;;;;;;;;;5032866;28;20025;-73
2022/05/16 01:33:16;;;;;;;7.10;3.72;;;;;;;;;;5026111;28;20020;-75
2022/05/16 01:35:41;;;;;;;7.23;3.40;;;;;;;;;;5034027;28;20067;-75
2022/05/16 01:38:18;;;;;;;4.35;3.08;;;;;;;;;;5040278;28;20731;-72
2022/05/16 01:40:45;;;;;;;5.47;3.38;;;;;;;;;;5039013;28;20061;-77
2022/05/16 01:43:10;;;;;;;4.30;3.10;;;;;;;;;;5033826;28;20504;-72
2022/05/16 01:45:37;;;;;;;8.35;4.13;;;;;;;;;;5033390;28;20124;-72
2022/05/16 01:48:02;;;;;;;4.60;3.63;;;;;;;;;;5031532;28;20037;-72
2022/05/16 01:50:27;;;;;;;7.30;4.38;;;;;;;;;;5029331;28;20027;-72
2022/05/16 01:52:53;;;;;;;4.78;3.30;;;;;;;;;;5035169;28;20028;-72
2022/05/16 01:55:18;;;;;;;6.65;3.22;;;;;;;;;;5026840;28;20033;-73
2022/05/16 01:57:43;;;;;;;6.50;3.28;;;;;;;;;;5035781;28;20100;-76
2022/05/16 02:00:10;;;;;;;5.32;3.15;;;;;;;;;;5036670;28;20049;-73
2022/05/16 02:02:36;;;;;;;4.68;2.95;;;;;;;;;;5039795;28;20029;-73
2022/05/16 02:05:02;;;;;;;6.78;3.42;;;;;;;;;;5036281;28;20159;-74
2022/05/16 02:07:27;;;;;;;5.10;4.05;;;;;;;;;;5037600;28;20460;-74
2022/05/16 02:09:54;;;;;;;7.53;3.67;;;;;;;;;;5037241;28;20113;-74
2022/05/16 02:12:19;;;;;;;8.43;4.13;;;;;;;;;;5039651;28;20304;-77
2022/05/16 02:14:45;;;;;;;10.10;4.68;;;;;;;;;;5028711;28;20810;-77
2022/05/16 02:17:10;;;;;;;6.85;4.45;;;;;;;;;;5030182;28;20065;-75
2022/05/16 02:19:35;;;;;;;8.45;4.38;;;;;;;;;;5032545;28;20126;-73
2022/05/16 02:24:45;;;;;;;3.65;3.08;;;;;;;;;;5035662;28;20162;-73
2022/05/16 02:27:11;;;;;;;4.20;3.00;;;;;;;;;;5036540;28;20163;-74
2022/05/16 02:29:36;;;;;;;4.15;3.45;;;;;;;;;;5038437;28;20031;-74
2022/05/16 02:32:02;;;;;;;5.72;3.75;;;;;;;;;;5027600;28;20017;-77
2022/05/16 02:34:28;;;;;;;6.75;3.72;;;;;;;;;;5038084;28;20040;-73
2022/05/16 02:36:53;;;;;;;7.60;4.13;;;;;;;;;;5038292;28;20033;-73
2022/05/16 02:39:19;;;;;;;6.15;4.05;;;;;;;;;;5031850;28;20029;-73
2022/05/16 02:41:44;;;;;;;6.80;4.13;;;;;;;;;;5032183;28;20036;-73
2022/05/16 02:44:09;;;;;;;12.20;5.70;;;;;;;;;;5033139;28;20043;-71
2022/05/16 02:46:35;;;;;;;16.17;6.72;;;;;;;;;;5026049;28;20029;-75
2022/05/16 02:49:00;;;;;;;13.60;5.47;;;;;;;;;;5035420;28;20056;-75
2022/05/16 02:51:25;;;;;;;5.80;4.13;;;;;;;;;;5039267;28;20025;-73
2022/05/16 02:53:51;;;;;;;7.18;3.90;;;;;;;;;;5029787;28;20463;-77
2022/05/16 02:56:16;;;;;;;7.10;3.72;;;;;;;;;;5026951;28;20480;-75
2022/05/16 02:58:43;;;;;;;5.65;3.55;;;;;;;;;;5039332;28;20043;-72
2022/05/16 03:01:10;;;;;;;3.67;2.90;;;;;;;;;;5046856;28;20428;-73
2022/05/16 03:03:35;;;;;;;6.30;3.80;;;;;;;;;;5033822;28;20043;-76
2022/05/16 03:06:00;;;;;;;6.10;3.72;;;;;;;;;;5032126;28;20037;-76
2022/05/16 03:08:26;;;;;;;5.90;3.80;;;;;;;;;;5029791;28;20338;-74
2022/05/16 03:10:51;;;;;;;4.32;3.55;;;;;;;;;;5036952;28;20448;-73
2022/05/16 03:13:16;;;;;;;5.20;3.63;;;;;;;;;;5035690;28;20032;-73
2022/05/16 03:15:42;;;;;;;6.30;3.67;;;;;;;;;;5036520;28;20024;-73
2022/05/16 03:18:07;;;;;;;5.28;3.28;;;;;;;;;;5029565;28;20037;-72
2022/05/16 03:20:32;;;;;;;4.60;3.22;;;;;;;;;;5035771;28;20424;-72
2022/05/16 03:22:58;;;;;;;3.88;3.38;;;;;;;;;;5025971;28;20112;-72
2022/05/16 03:25:23;;;;;;;6.50;3.47;;;;;;;;;;5030772;28;20380;-71
2022/05/16 03:27:49;;;;;;;6.03;3.60;;;;;;;;;;5038846;28;20025;-72
2022/05/16 03:30:14;;;;;;;7.90;3.70;;;;;;;;;;5035835;28;20024;-72
2022/05/16 03:32:40;;;;;;;7.03;3.30;;;;;;;;;;5047947;28;20127;-76
2022/05/16 03:35:06;;;;;;;7.10;3.22;;;;;;;;;;5049657;28;20039;-73
2022/05/16 03:37:31;;;;;;;5.72;3.47;;;;;;;;;;5038030;28;20061;-74
2022/05/16 03:42:40;;;;;;;3.65;3.35;;;;;;;;;;5032811;28;20578;-73
2022/05/16 03:45:06;;;;;;;4.40;3.55;;;;;;;;;;5042323;28;20024;-73
2022/05/16 03:47:31;;;;;;;7.25;3.55;;;;;;;;;;5043457;28;20033;-73
2022/05/16 03:49:56;;;;;;;4.55;3.63;;;;;;;;;;5039377;28;20037;-76
2022/05/16 03:52:22;;;;;;;5.97;3.55;;;;;;;;;;5036701;28;20063;-72
2022/05/16 03:54:47;;;;;;;5.70;3.60;;;;;;;;;;5030229;28;20103;-72
2022/05/16 03:57:13;;;;;;;8.18;3.58;;;;;;;;;;5036205;28;20020;-77
2022/05/16 03:59:38;;;;;;;9.32;3.95;;;;;;;;;;5039613;28;20037;-75
2022/05/16 04:02:05;;;;;;;5.53;4.32;;;;;;;;;;5042419;28;20032;-71
2022/05/16 04:04:30;;;;;;;4.35;3.58;;;;;;;;;;5041169;28;20041;-72
2022/05/16 04:06:56;;;;;;;9.90;3.90;;;;;;;;;;5041133;28;20049;-73
2022/05/16 04:09:21;;;;;;;6.13;3.85;;;;;;;;;;5040435;28;20025;-76
2022/05/16 04:11:47;;;;;;;5.70;3.65;;;;;;;;;;5040443;28;20364;-72
2022/05/16 04:14:12;;;;;;;6.10;4.25;;;;;;;;;;5031640;28;20029;-75
2022/05/16 04:16:37;;;;;;;8.80;3.60;;;;;;;;;;5025519;28;20032;-74
2022/05/16 04:19:04;;;;;;;4.43;3.30;;;;;;;;;;5024891;28;20437;-73
2022/05/16 04:21:30;;;;;;;6.63;4.10;;;;;;;;;;5026763;28;20053;-73
2022/05/16 04:23:56;;;;;;;5.13;3.80;;;;;;;;;;5027070;28;21196;-72
2022/05/16 04:26:21;;;;;;;5.50;3.80;;;;;;;;;;5029595;28;20040;-77
2022/05/16 04:28:46;;;;;;;6.97;3.17;;;;;;;;;;5030063;28;20032;-73
2022/05/16 04:31:12;;;;;;;5.60;3.83;;;;;;;;;;5032088;28;20029;-73
2022/05/16 04:33:37;;;;;;;6.00;3.85;;;;;;;;;;5039351;28;20082;-70
2022/05/16 04:36:03;;;;;;;4.63;3.63;;;;;;;;;;5039093;28;20106;-73
2022/05/16 04:38:28;;;;;;;4.13;3.28;;;;;;;;;;5039344;28;20024;-72
2022/05/16 04:43:37;;;;;;;9.95;4.10;;;;;;;;;;5030205;28;20502;-73
2022/05/16 04:46:06;;;;;;;7.45;4.00;;;;;;;;;;5025664;28;20033;-72
2022/05/16 04:48:32;;;;;;;10.97;4.40;;;;;;;;;;5026946;28;20041;-72
2022/05/16 04:50:58;;;;;;;7.28;4.80;;;;;;;;;;5026125;28;20436;-72
2022/05/16 04:53:24;;;;;;;6.05;4.55;;;;;;;;;;5025458;28;20087;-76
2022/05/16 04:55:49;;;;;;;9.00;5.95;;;;;;;;;;5027020;28;20021;-74
2022/05/16 04:58:15;;;;;;;7.78;5.63;;;;;;;;;;5024280;28;20036;-74
2022/05/16 05:00:40;;;;;;;8.40;5.90;;;;;;;;;;5029039;28;20045;-71
2022/05/16 05:03:05;;;;;;;6.25;4.60;;;;;;;;;;5033187;28;20532;-71
2022/05/16 05:05:31;;;;;;;6.80;3.20;;;;;;;;;;5029699;28;20036;-73
2022/05/16 05:07:56;;;;;;;10.40;4.38;;;;;;;;;;5040056;28;20028;-75
2022/05/16 05:15:52;;;;;;;4.93;3.53;;;;;;;;;;5035060;28;20044;-72
2022/05/16 05:18:18;;;;;;;4.53;3.95;;;;;;;;;;5031765;28;20044;-73
2022/05/16 05:20:45;;;;;;;4.70;3.53;;;;;;;;;;5026307;28;20033;-73
2022/05/16 05:23:10;;;;;;;6.35;3.88;;;;;;;;;;5026655;28;20037;-72
2022/05/16 05:25:36;;;;;;;7.45;3.38;;;;;;;;;;5028720;28;20033;-72
2022/05/16 05:28:02;;;;;;;4.80;3.50;;;;;;;;;;5035478;28;20037;-71
2022/05/16 05:30:29;;;;;;;5.90;3.25;;;;;;;;;;5024705;28;20028;-74
2022/05/16 05:32:54;;;;;;;7.10;4.55;;;;;;;;;;5025179;28;20028;-73
2022/05/16 05:35:19;;;;;;;6.38;3.85;;;;;;;;;;5025769;28;20032;-74
2022/05/16 05:37:45;;;;;;;5.50;2.92;;;;;;;;;;5027778;28;20035;-72
2022/05/16 05:40:11;;;;;;;6.78;3.30;;;;;;;;;;5027952;28;20082;-71
2022/05/16 05:42:37;;;;;;;3.35;2.92;;;;;;;;;;5039627;28;20024;-71
2022/05/16 05:45:04;;;;;;;4.53;2.88;;;;;;;;;;5037257;28;20036;-71
2022/05/16 05:47:29;;;;;;;5.05;3.28;;;;;;;;;;5040055;28;20101;-73
2022/05/16 05:49:54;;;;;;;5.75;3.03;;;;;;;;;;5028560;28;20036;-72
2022/05/16 05:52:20;;;;;;;4.38;3.33;;;;;;;;;;5037518;28;20021;-75
2022/05/16 05:54:46;;;;;;;4.05;2.60;;;;;;;;;;5041116;28;20356;-76
2022/05/16 05:57:12;;;;;;;3.63;2.95;;;;;;;;;;5038485;28;20119;-74
2022/05/16 05:59:37;;;;;;;9.68;3.50;;;;;;;;;;5038824;28;20028;-69
2022/05/16 06:02:03;;;;;;;3.80;2.72;;;;;;;;;;5038897;28;20052;-70
2022/05/16 06:04:29;;;;;;;6.80;3.13;;;;;;;;;;5038221;28;20032;-71
2022/05/16 06:06:54;;;;;;;5.30;3.55;;;;;;;;;;5037325;28;20036;-70
2022/05/16 06:09:19;;;;;;;4.45;3.08;;;;;;;;;;5038460;28;20025;-70
2022/05/16 06:11:45;;;;;;;8.98;4.43;;;;;;;;;;5039172;28;20437;-71
2022/05/16 06:14:10;;;;;;;11.90;4.30;;;;;;;;;;5038592;28;20150;-74
2022/05/16 06:16:35;;;;;;;14.45;4.47;;;;;;;;;;5039539;28;20048;-70
2022/05/16 06:19:01;;;;;;;13.13;5.00;;;;;;;;;;5037557;28;20112;-69
2022/05/16 06:21:26;;;;;;;12.73;4.80;;;;;;;;;;5038130;28;21646;-73
2022/05/16 06:23:52;;;;;;;12.88;4.25;;;;;;;;;;5038592;28;20446;-70
2022/05/16 06:26:17;;;;;;;12.45;4.47;;;;;;;;;;5038752;28;20079;-71
2022/05/16 06:28:43;;;;;;;13.32;4.18;;;;;;;;;;5038938;28;20440;-74
2022/05/16 06:31:08;;;;;;;11.65;4.15;;;;;;;;;;5039026;28;20028;-69
2022/05/16 06:33:34;;;;;;;8.32;4.30;;;;;;;;;;5036932;28;20021;-71
2022/05/16 06:36:02;;;;;;;12.77;4.20;;;;;;;;;;5037042;28;20159;-74
2022/05/16 06:38:29;;;;;;;13.63;4.40;;;;;;;;;;5036641;28;20425;-69
2022/05/16 06:40:55;;;;;;;8.20;3.55;;;;;;;;;;5037603;28;20131;-73
2022/05/16 06:43:22;;;;;;;8.10;2.95;;;;;;;;;;5038551;28;20021;-74
2022/05/16 06:45:47;;;;;;;4.95;2.58;;;;;;;;;;5037546;28;20024;-72
2022/05/16 06:48:13;;;;;;;5.75;2.75;;;;;;;;;;5039009;28;20028;-70
2022/05/16 06:50:39;;;;;;;4.47;2.47;;;;;;;;;;5036057;28;20029;-70
2022/05/16 06:53:06;;;;;;;5.55;2.65;;;;;;;;;;5037305;28;20040;-74
2022/05/16 06:55:31;;;;;;;4.20;2.90;;;;;;;;;;5038092;28;20033;-72
2022/05/16 06:57:57;;;;;;;5.05;3.00;;;;;;;;;;5036935;28;20024;-74
2022/05/16 07:00:22;;;;;;;3.03;2.70;;;;;;;;;;5035423;28;20094;-70
2022/05/16 07:02:48;;;;;;;3.83;2.95;;;;;;;;;;5036713;28;20092;-70
2022/05/16 07:05:14;;;;;;;7.22;2.75;;;;;;;;;;5037624;28;20428;-69
2022/05/16 07:07:39;;;;;;;4.22;2.42;;;;;;;;;;5036510;28;20052;-71
2022/05/16 07:10:05;;;;;;;5.30;3.08;;;;;;;;;;5036550;28;20457;-73
2022/05/16 07:12:31;;;;;;;4.20;2.45;;;;;;;;;;5035737;28;20032;-72
2022/05/16 07:14:56;;;;;;;4.45;2.60;;;;;;;;;;5038973;28;20108;-71
2022/05/16 07:17:21;;;;;;;5.03;2.40;;;;;;;;;;5038724;28;20024;-74
2022/05/16 07:19:49;;;;;;;11.50;3.47;;;;;;;;;;5037744;28;20132;-72
2022/05/16 07:22:15;;;;;;;3.08;2.58;;;;;;;;;;5037365;28;20043;-69
2022/05/16 07:24:41;;;;;;;4.07;2.67;;;;;;;;;;5037339;28;20025;-71
2022/05/16 07:29:50;;;;;;;8.63;2.55;;;;;;;;;;5037787;28;20102;-70
2022/05/16 07:32:16;;;;;;;6.15;2.35;;;;;;;;;;5036606;28;20022;-70
2022/05/16 07:34:41;;;;;;;5.80;2.50;;;;;;;;;;5039019;28;20078;-70
2022/05/16 07:37:07;;;;;;;6.50;2.25;;;;;;;;;;5036912;28;20110;-70
2022/05/16 07:39:35;;;;;;;4.30;2.63;;;;;;;;;;5039046;28;20039;-74
2022/05/16 07:42:00;;;;;;;3.75;2.55;;;;;;;;;;5036739;28;20436;-69
2022/05/16 07:44:26;;;;;;;5.40;2.40;;;;;;;;;;5037381;28;20032;-70
2022/05/16 07:46:51;;;;;;;3.83;2.22;;;;;;;;;;5037588;28;20064;-69
2022/05/16 07:49:18;;;;;;;2.58;2.00;;;;;;;;;;5036900;28;20035;-70
2022/05/16 07:51:43;;;;;;;4.95;2.25;;;;;;;;;;5036852;28;20020;-75
2022/05/16 07:54:08;;;;;;;5.60;2.45;;;;;;;;;;5038525;28;20409;-69
2022/05/16 07:56:34;;;;;;;3.80;2.00;;;;;;;;;;5037010;28;20037;-75
2022/05/16 07:59:00;;;;;;;3.78;2.22;;;;;;;;;;5037655;28;20017;-72
2022/05/16 08:01:25;;;;;;;5.72;2.35;;;;;;;;;;5037244;28;20152;-70
2022/05/16 08:03:50;;;;;;;5.00;2.08;;;;;;;;;;5037130;28;20118;-70
2022/05/16 08:06:16;;;;;;;4.13;1.85;;;;;;;;;;5036297;28;20170;-70
2022/05/16 08:11:25;;;;;;;4.65;2.08;;;;;;;;;;5038105;28;20085;-71
2022/05/16 08:13:50;;;;;;;3.75;2.10;;;;;;;;;;5040546;28;20017;-70
2022/05/16 08:16:16;;;;;;;2.28;1.92;;;;;;;;;;5040942;28;20079;-70
2022/05/16 08:18:42;;;;;;;2.90;2.28;;;;;;;;;;5040874;28;20033;-72
2022/05/16 08:21:08;;;;;;;8.32;2.53;;;;;;;;;;5040437;28;20024;-74
2022/05/16 08:23:34;;;;;;;3.30;2.17;;;;;;;;;;5041161;28;20463;-70
2022/05/16 08:26:03;;;;;;;6.25;1.70;;;;;;;;;;5041078;28;20034;-72
2022/05/16 08:28:29;;;;;;;6.25;1.77;;;;;;;;;;5041396;28;20131;-76
2022/05/16 08:30:54;;;;;;;9.77;2.10;;;;;;;;;;5041331;28;20571;-73
2022/05/16 08:33:19;;;;;;;2.33;1.67;;;;;;;;;;5039437;28;20033;-74
2022/05/16 08:39:51;;;;;;;3.10;1.80;;;;;;;;;;5040382;28;20054;-71
2022/05/16 08:41:14;;;;;;;2.70;1.80;;;;;;;;;;5039769;28;20083;-71
2022/05/16 08:43:49;;;;;;;5.55;2.17;;;;;;;;;;5038497;28;20037;-75
2022/05/16 08:46:24;;;;;;;6.95;1.88;;;;;;;;;;5039475;28;20027;-70
2022/05/16 08:48:53;;;;;;;6.60;1.95;;;;;;;;;;5040253;28;20578;-70
2022/05/16 08:51:18;;;;;;;;;;;;;;;;;;5040933;28;20052;-71
2022/05/16 08:54:02;;;;;;;4.17;1.90;;;;;;;;;;5039766;28;19959;-75
2022/05/16 08:56:29;;;;;;;3.28;1.70;;;;;;;;;;5039749;28;20654;-75
2022/05/16 08:59:10;;;;;;;11.68;2.17;;;;;;;;;;5039791;28;20037;-70
2022/05/16 09:01:49;;;;;;;6.85;2.30;;;;;;;;;;5041601;28;20049;-74
2022/05/16 09:04:21;;;;;;;4.03;1.75;;;;;;;;;;5039976;28;20402;-70
2022/05/16 09:06:55;;;;;;;8.73;2.22;;;;;;;;;;5041271;28;20363;-76
2022/05/16 09:09:22;;;;;;;5.10;2.10;;;;;;;;;;5038487;28;20032;-70
2022/05/16 09:11:51;;;;;;;4.35;1.55;;;;;;;;;;5038985;28;20081;-73
2022/05/16 09:14:42;;;;;;;5.57;2.10;;;;;;;;;;5039444;28;20028;-70
2022/05/16 09:17:30;;;;;;;2.97;1.77;;;;;;;;;;5046408;28;20034;-69
2022/05/16 09:20:16;;;;;;;2.92;1.80;;;;;;;;;;5039700;28;20037;-69
2022/05/16 09:22:50;;;;;;;2.78;1.95;;;;;;;;;;5045984;28;20456;-71
2022/05/16 09:25:15;;;;;;;5.50;1.90;;;;;;;;;;5039296;28;20029;-72
2022/05/16 09:30:29;;;;;;;4.72;2.08;;;;;;;;;;5040291;28;20320;-71
2022/05/16 09:33:17;;;;;;;4.18;1.85;;;;;;;;;;5039636;28;20029;-70
2022/05/16 09:35:51;;;;;;;3.40;2.10;;;;;;;;;;5039275;28;20041;-70
2022/05/16 09:38:18;;;;;;;4.10;2.00;;;;;;;;;;5040112;28;20033;-72
2022/05/16 09:40:54;;;;;;;3.00;2.28;;;;;;;;;;5041227;28;20068;-71
2022/05/16 09:43:21;;;;;;;2.65;2.10;;;;;;;;;;5039530;28;20025;-71
2022/05/16 09:45:49;;;;;;;3.80;1.70;;;;;;;;;;5040202;28;20159;-69
2022/05/16 09:48:19;;;;;;;3.45;1.55;;;;;;;;;;5039775;28;20579;-75
2022/05/16 09:51:17;;;;;;;5.03;2.22;;;;;;;;;;5039045;28;20108;-71
2022/05/16 09:53:43;;;;;;;3.73;1.90;;;;;;;;;;5045750;28;20048;-70
2022/05/16 09:56:26;;;;;;;4.10;1.83;;;;;;;;;;5038611;28;20028;-70
2022/05/16 09:58:54;;;;;;;7.95;2.28;;;;;;;;;;5039020;28;20017;-75
2022/05/16 10:01:40;;;;;;;4.78;2.28;;;;;;;;;;5038991;28;20053;-75
2022/05/16 10:04:12;;;;;;;9.43;2.45;;;;;;;;;;5054031;28;20021;-71
2022/05/16 10:06:43;;;;;;;5.75;2.60;;;;;;;;;;5038858;28;20044;-73
2022/05/16 10:09:14;;;;;;;3.78;2.55;;;;;;;;;;5039694;28;20041;-76
2022/05/16 10:11:40;;;;;;;4.88;2.03;;;;;;;;;;5039112;28;20086;-70
2022/05/16 10:14:06;;;;;;;7.88;2.10;;;;;;;;;;5037343;28;20025;-75
2022/05/16 10:16:31;;;;;;;6.38;2.03;;;;;;;;;;5037997;28;20517;-70
2022/05/16 10:18:58;;;;;;;4.93;2.05;;;;;;;;;;5039079;28;20592;-71
2022/05/16 10:21:36;;;;;;;3.53;1.90;;;;;;;;;;5053758;28;20136;-70
2022/05/16 10:24:07;;;;;;;2.67;2.03;;;;;;;;;;5036713;28;20029;-71
2022/05/16 10:26:34;;;;;;;2.42;2.13;;;;;;;;;;5038663;28;20025;-71
2022/05/16 10:29:07;;;;;;;3.58;1.95;;;;;;;;;;5038555;28;20334;-74
2022/05/16 10:34:42;;;;;;;3.53;2.42;;;;;;;;;;5038614;28;20086;-71
2022/05/16 10:37:07;;;;;;;3.03;2.45;;;;;;;;;;5039134;28;20041;-72
2022/05/16 10:39:34;;;;;;;5.63;2.30;;;;;;;;;;5037972;28;20444;-70
2022/05/16 10:42:10;;;;;;;4.35;2.10;;;;;;;;;;5037032;28;20111;-71
2022/05/16 10:44:38;;;;;;;4.35;2.20;;;;;;;;;;5036582;28;20437;-76
2022/05/16 10:47:23;;;;;;;6.95;2.40;;;;;;;;;;5035587;28;20032;-72
2022/05/16 10:49:49;;;;;;;4.47;2.13;;;;;;;;;;5037329;28;20050;-74
2022/05/16 10:52:27;;;;;;;5.13;1.80;;;;;;;;;;5039533;28;20059;-71
2022/05/16 10:54:53;;;;;;;;;;;;;;;;;;5037183;28;20266;-70
2022/05/16 10:57:44;;;;;;;4.87;2.40;;;;;;;;;;5038136;28;20312;-73
2022/05/16 11:00:14;;;;;;;6.13;2.30;;;;;;;;;;5039069;28;20214;-73
2022/05/16 11:02:46;;;;;;;2.05;1.65;;;;;;;;;;5037805;28;20392;-72
2022/05/16 11:05:31;;;;;;;4.35;2.50;;;;;;;;;;5037294;28;20037;-76
2022/05/16 11:08:16;;;;;;;3.05;1.90;;;;;;;;;;5038051;28;20035;-70
2022/05/16 11:11:14;;;;;;;4.85;2.35;;;;;;;;;;5038576;28;20037;-75
2022/05/16 11:13:45;;;;;;;5.43;2.00;;;;;;;;;;5044690;28;20123;-70
2022/05/16 11:16:12;;;;;;;3.03;1.98;;;;;;;;;;5038484;28;20116;-72
2022/05/16 11:18:43;;;;;;;6.97;2.10;;;;;;;;;;5054133;28;20029;-75
2022/05/16 11:21:14;;;;;;;5.03;2.10;;;;;;;;;;5037856;28;20062;-71
2022/05/16 11:23:47;;;;;;;7.18;2.50;;;;;;;;;;5038879;28;20035;-71
2022/05/16 11:26:16;;;;;;;3.30;2.42;;;;;;;;;;5038006;28;20025;-75
2022/05/16 11:29:19;;;;;;;3.25;2.08;;;;;;;;;;5039269;28;20112;-71
2022/05/16 11:31:47;;;;;;;2.63;1.85;;;;;;;;;;5037311;28;20048;-72
2022/05/16 11:34:17;;;;;;;4.90;1.67;;;;;;;;;;5037538;28;20044;-72
2022/05/16 11:36:51;;;;;;;3.90;2.10;;;;;;;;;;5037389;28;20123;-71
2022/05/16 11:39:22;;;;;;;2.33;2.13;;;;;;;;;;5038429;28;20097;-73
2022/05/16 11:41:54;;;;;;;3.20;2.10;;;;;;;;;;5039286;28;20029;-71
2022/05/16 11:44:31;;;;;;;5.32;1.92;;;;;;;;;;5032954;28;20025;-74
2022/05/16 11:47:00;;;;;;;3.45;2.10;;;;;;;;;;5033113;28;20392;-71
2022/05/16 11:49:36;;;;;;;4.60;2.10;;;;;;;;;;5034096;28;20094;-78
2022/05/16 11:52:20;;;;;;;3.42;1.90;;;;;;;;;;5041444;28;20018;-71
2022/05/16 12:00:31;;;;;;;5.25;1.85;;;;;;;;;;5041611;28;20048;-72
2022/05/16 12:00:40;;;;;;;3.03;2.03;;;;;;;;;;5040540;28;20056;-74
2022/05/16 12:03:12;;;;;;;8.30;2.30;;;;;;;;;;5039775;28;20021;-71
2022/05/16 12:05:43;;;;;;;7.63;2.10;;;;;;;;;;5041023;28;20021;-73
2022/05/16 12:08:28;;;;;;;4.55;2.08;;;;;;;;;;5042235;28;20021;-71
2022/05/16 12:10:57;;;;;;;3.78;1.95;;;;;;;;;;5041496;28;20120;-72
2022/05/16 12:13:22;;;;;;;3.67;2.10;;;;;;;;;;5040538;28;20029;-77
2022/05/16 12:15:48;;;;;;;7.35;2.28;;;;;;;;;;5040092;28;20032;-72
2022/05/16 12:18:32;;;;;;;6.00;1.80;;;;;;;;;;5037846;28;20127;-72
2022/05/16 12:20:58;;;;;;;6.13;2.00;;;;;;;;;;5041315;28;20029;-71
2022/05/16 12:23:42;;;;;;;4.00;2.10;;;;;;;;;;5038999;28;20025;-71
2022/05/16 12:26:08;;;;;;;5.75;1.65;;;;;;;;;;5041126;28;20033;-74
2022/05/16 12:28:34;;;;;;;3.72;1.80;;;;;;;;;;5040103;28;20040;-75
2022/05/16 12:31:00;;;;;;;2.45;1.77;;;;;;;;;;5040400;28;20396;-75
2022/05/16 12:33:25;;;;;;;4.38;2.05;;;;;;;;;;5041966;28;20028;-71
2022/05/16 12:35:54;;;;;;;2.57;1.90;;;;;;;;;;5040402;28;20036;-71
2022/05/16 12:38:21;;;;;;;5.00;2.03;;;;;;;;;;5040732;28;20967;-72
2022/05/16 12:40:58;;;;;;;6.72;2.08;;;;;;;;;;5038643;28;20035;-73
2022/05/16 12:43:24;;;;;;;4.45;1.90;;;;;;;;;;5040614;28;20021;-72
2022/05/16 12:46:08;;;;;;;3.67;1.97;;;;;;;;;;5039216;28;20035;-71
2022/05/16 12:48:45;;;;;;;5.78;2.08;;;;;;;;;;5039745;28;20309;-76
2022/05/16 12:51:37;;;;;;;4.85;2.47;;;;;;;;;;5038716;28;20426;-72
2022/05/16 12:54:12;;;;;;;5.10;1.77;;;;;;;;;;5038602;28;20036;-72
2022/05/16 12:57:06;;;;;;;3.20;1.95;;;;;;;;;;5039728;28;20061;-73
2022/05/16 12:59:41;;;;;;;4.30;1.90;;;;;;;;;;5046850;28;20197;-72
2022/05/16 13:02:26;;;;;;;3.65;2.00;;;;;;;;;;5040371;28;20507;-71
2022/05/16 13:04:54;;;;;;;4.55;1.90;;;;;;;;;;5040066;28;20052;-73
2022/05/16 13:07:21;;;;;;;2.78;1.83;;;;;;;;;;5038510;28;20120;-70
2022/05/16 13:09:50;;;;;;;3.53;2.03;;;;;;;;;;5040709;28;20425;-72
2022/05/16 13:12:15;;;;;;;3.50;1.90;;;;;;;;;;5040307;28;20029;-71
2022/05/16 13:14:59;;;;;;;3.55;1.73;;;;;;;;;;5039304;28;20044;-73
2022/05/16 13:17:37;;;;;;;5.15;2.08;;;;;;;;;;5037313;28;20041;-72
2022/05/16 13:20:05;;;;;;;3.28;1.80;;;;;;;;;;5040762;28;20419;-73
2022/05/16 13:22:32;;;;;;;2.95;1.77;;;;;;;;;;5029198;28;20031;-71
2022/05/16 13:24:57;;;;;;;4.85;2.05;;;;;;;;;;5036645;28;21019;-72
2022/05/16 13:30:10;;;;;;;4.32;2.22;;;;;;;;;;5036592;28;20376;-75
2022/05/16 13:32:36;;;;;;;5.40;1.95;;;;;;;;;;5026304;28;20021;-72
2022/05/16 13:35:07;;;;;;;2.13;1.80;;;;;;;;;;5030526;28;20040;-73
2022/05/16 13:37:42;;;;;;;4.20;1.90;;;;;;;;;;5037231;28;20074;-73
2022/05/16 13:40:13;;;;;;;6.07;2.30;;;;;;;;;;5037635;28;20022;-72
2022/05/16 13:42:38;;;;;;;3.72;2.15;;;;;;;;;;5038854;28;20033;-71
2022/05/16 13:45:04;;;;;;;4.10;2.10;;;;;;;;;;5036477;28;20029;-71
2022/05/16 13:47:31;;;;;;;3.72;1.90;;;;;;;;;;5026648;28;20073;-71
2022/05/16 13:49:57;;;;;;;3.50;2.20;;;;;;;;;;5030253;28;20029;-71
2022/05/16 13:52:27;;;;;;;3.45;1.77;;;;;;;;;;5040135;28;20021;-77
2022/05/16 13:54:57;;;;;;;3.33;2.10;;;;;;;;;;5038655;28;20037;-74
2022/05/16 13:57:23;;;;;;;3.40;1.80;;;;;;;;;;5035747;28;20404;-70
2022/05/16 14:00:08;;;;;;;5.53;1.90;;;;;;;;;;5034068;28;20070;-72
2022/05/16 14:02:34;;;;;;;4.03;1.85;;;;;;;;;;5023100;28;20348;-78
2022/05/16 14:05:05;;;;;;;3.10;2.05;;;;;;;;;;5026164;28;20035;-75
2022/05/16 14:07:33;;;;;;;2.65;1.98;;;;;;;;;;5027747;28;20025;-75
2022/05/16 14:10:04;;;;;;;5.13;2.20;;;;;;;;;;5025772;28;20029;-74
2022/05/16 14:12:35;;;;;;;5.03;2.13;;;;;;;;;;5027192;28;20753;-70
2022/05/16 14:15:03;;;;;;;4.10;2.10;;;;;;;;;;5024390;28;20082;-70
2022/05/16 14:17:36;;;;;;;4.17;1.93;;;;;;;;;;5025093;28;20475;-75
2022/05/16 14:20:07;;;;;;;8.68;2.05;;;;;;;;;;5027086;28;20320;-73
2022/05/16 14:22:35;;;;;;;4.38;1.90;;;;;;;;;;5033180;28;20033;-74
2022/05/16 14:25:12;;;;;;;2.08;1.63;;;;;;;;;;5034975;28;20098;-72
2022/05/16 14:28:04;;;;;;;3.53;1.98;;;;;;;;;;5030685;28;20120;-72
2022/05/16 14:30:31;;;;;;;5.07;1.73;;;;;;;;;;5039605;28;20037;-73
2022/05/16 14:33:00;;;;;;;4.47;1.92;;;;;;;;;;5040042;28;20023;-74
2022/05/16 14:35:28;;;;;;;4.43;2.00;;;;;;;;;;5039872;28;20116;-75
2022/05/16 14:37:54;;;;;;;4.13;2.30;;;;;;;;;;5027813;28;20037;-71
2022/05/16 14:40:21;;;;;;;3.80;2.47;;;;;;;;;;5039372;28;20417;-71
2022/05/16 14:42:59;;;;;;;4.38;2.17;;;;;;;;;;5040111;28;20032;-76
2022/05/16 14:46:42;;;;;;;3.10;2.10;;;;;;;;;;5037206;28;20115;-75
2022/05/16 14:48:11;;;;;;;4.45;2.38;;;;;;;;;;5037335;28;20055;-71
2022/05/16 14:50:37;;;;;;;6.30;1.90;;;;;;;;;;5033069;28;20048;-77
2022/05/16 14:53:07;;;;;;;5.53;2.17;;;;;;;;;;5023658;28;20416;-76
2022/05/16 14:55:34;;;;;;;3.38;1.77;;;;;;;;;;5024894;28;20025;-79
2022/05/16 14:58:00;;;;;;;10.75;1.95;;;;;;;;;;5027959;28;20028;-76
2022/05/16 15:05:54;;;;;;;5.63;2.00;;;;;;;;;;5022727;28;20036;-72
2022/05/16 15:08:24;;;;;;;3.15;1.80;;;;;;;;;;5026165;28;20037;-71
2022/05/16 15:10:50;;;;;;;4.28;2.17;;;;;;;;;;5022627;28;20041;-71
2022/05/16 15:13:15;;;;;;;2.85;2.00;;;;;;;;;;5034107;28;20375;-72
2022/05/16 15:15:40;;;;;;;4.70;2.40;;;;;;;;;;5036652;28;20052;-71
2022/05/16 15:18:06;;;;;;;2.72;1.80;;;;;;;;;;5032575;28;20355;-73
2022/05/16 15:20:31;;;;;;;3.90;2.13;;;;;;;;;;5025965;28;20031;-78
2022/05/16 15:22:57;;;;;;;2.35;1.83;;;;;;;;;;5022690;28;20029;-75
2022/05/16 15:25:22;;;;;;;3.00;1.92;;;;;;;;;;5023860;28;20041;-73
2022/05/16 15:27:47;;;;;;;3.38;2.17;;;;;;;;;;5024458;28;20029;-77
2022/05/16 15:30:13;;;;;;;3.05;2.38;;;;;;;;;;5025605;28;21144;-77
2022/05/16 15:32:39;;;;;;;4.00;2.20;;;;;;;;;;5024194;28;20028;-76
2022/05/16 15:35:05;;;;;;;4.85;2.42;;;;;;;;;;5031954;28;20116;-76